This is the latest recevied weather packets stored in our database for station/object AI5YA-13. If no packets are shown the sender has not sent any weather packets the latest 1 day(s).
| Time | Temp. | Humidity | Pressure | Rain* | Wind** | Luminosity | Snow |
|---|---|---|---|---|---|---|---|
| 1778099786 | 22.22° C | 39% | 1013.7 hPa | 0 mm | - | 648 W/m² | - |
| 1778099482 | 22.78° C | 38% | 1013.7 hPa | 0 mm | - | 668 W/m² | - |
| 1778098876 | 22.22° C | 40% | 1014 hPa | 0 mm | - | 706 W/m² | - |
| 1778097056 | 20.56° C | 42% | 1014.5 hPa | 0 mm | - | 741 W/m² | - |
| 1778096148 | 20.56° C | 43% | 1014.6 hPa | 0 mm | - | 730 W/m² | - |
| 1778095845 | 20.56° C | 44% | 1014.6 hPa | 0 mm | - | 722 W/m² | - |
| 1778094630 | 20° C | 45% | 1014.8 hPa | 0 mm | - | 755 W/m² | - |
| 1778092508 | 18.33° C | 50% | 1015.5 hPa | 0 mm | - | 750 W/m² | - |
| 1778090994 | 17.22° C | 53% | 1015.5 hPa | 0 mm | - | 759 W/m² | - |
| 1778090084 | 17.22° C | 55% | 1015.9 hPa | 0 mm | - | 780 W/m² | - |
| 1778088872 | 16.11° C | 57% | 1015.8 hPa | 0 mm | - | 790 W/m² | - |
| 1778085832 | 14.44° C | 62% | 1016.2 hPa | 0 mm | - | 838 W/m² | - |
| 1778085530 | 14.44° C | 62% | 1016 hPa | 0 mm | - | 827 W/m² | - |
| 1778085224 | 15° C | 62% | 1015.9 hPa | 0 mm | - | 778 W/m² | - |
| 1778084315 | 14.44° C | 63% | 1015.9 hPa | 0 mm | - | 853 W/m² | - |
| 1778084012 | 13.33° C | 65% | 1016.2 hPa | 0 mm | - | 469 W/m² | - |
| 1778083710 | 13.33° C | 64% | 1016 hPa | 0 mm | - | 769 W/m² | - |
| 1778083406 | 13.89° C | 64% | 1016.2 hPa | 0 mm | - | 322 W/m² | - |
| 1778083105 | 13.33° C | 65% | 1015.6 hPa | 0 mm | - | 797 W/m² | - |
| 1778080463 | 11.67° C | 69% | 1016 hPa | 0 mm | - | 264 W/m² | - |
| 1778080161 | 12.22° C | 69% | 1016.2 hPa | 0 mm | - | 326 W/m² | - |
| 1778078039 | 11.67° C | 70% | 1015.7 hPa | 0 mm | - | 308 W/m² | - |
| 1778077435 | 11.11° C | 71% | 1015.7 hPa | 0 mm | - | 213 W/m² | - |
| 1778077133 | 11.11° C | 71% | 1015.9 hPa | 0 mm | - | 193 W/m² | - |
| 1778076225 | 11.67° C | 72% | 1015.5 hPa | 0 mm | - | 186 W/m² | - |
* Rain latest hour (hover to see other rain measurements)
** Current wind speed in m/s (hover to see current wind gust speed)